Time;durP1;ratioP1;P1;durP2;ratioP2;P2;SDS_P1;SDS_P2;PMS_P1;PMS_P2;Temp;Humidity;BMP_temperature;BMP_pressure;BME280_temperature;BME280_humidity;BME280_pressure;Samples;Min_cycle;Max_cycle;Signal;HPM_P1;HPM_P2
2021/04/20 00:00:35;;;;;;;63.33;37.92;;;7.10;92.80;;;5.94;79.06;98534.91;5020199;28;20425;-78
2021/04/20 00:03:02;;;;;;;65.38;38.35;;;7.10;92.70;;;5.98;79.08;98534.31;5022795;28;20424;-79
2021/04/20 00:05:28;;;;;;;61.95;38.28;;;7.10;92.80;;;6.03;79.22;98533.72;5022348;28;20467;-79
2021/04/20 00:07:54;;;;;;;61.08;37.53;;;7.10;92.80;;;6.08;78.83;98529.53;5024230;28;20428;-79
2021/04/20 00:10:21;;;;;;;59.22;36.80;;;7.20;92.70;;;6.13;78.57;98527.13;5025822;28;20412;-77
2021/04/20 00:12:48;;;;;;;61.40;37.23;;;7.20;92.60;;;6.10;78.24;98529.31;5008620;28;20506;-77
2021/04/20 00:15:21;;;;;;;59.85;36.17;;;7.20;92.30;;;5.96;78.25;98520.56;5029519;28;20459;-78
2021/04/20 00:17:49;;;;;;;60.25;35.85;;;7.10;92.20;;;5.88;78.86;98520.72;5029570;28;20420;-79
2021/04/20 00:20:17;;;;;;;58.13;35.65;;;7.00;92.50;;;5.83;79.15;98518.63;5026027;28;20455;-78
2021/04/20 00:22:46;;;;;;;58.22;36.55;;;7.00;92.60;;;5.73;79.66;98518.16;5024403;28;20418;-77
2021/04/20 00:25:14;;;;;;;62.83;37.67;;;6.90;92.90;;;5.74;79.78;98517.16;5024924;28;20443;-78
2021/04/20 00:27:41;;;;;;;58.95;36.60;;;6.80;93.00;;;5.75;79.52;98521.41;5006361;28;20428;-78
2021/04/20 00:30:09;;;;;;;63.67;37.58;;;6.90;93.00;;;5.70;79.49;98518.56;5021798;28;20413;-79
2021/04/20 00:32:36;;;;;;;61.22;37.60;;;6.90;92.90;;;5.61;79.85;98514.44;5021570;28;20431;-79
2021/04/20 00:35:05;;;;;;;58.80;36.45;;;6.80;93.00;;;5.61;79.66;98517.06;5021577;28;20409;-79
2021/04/20 00:37:32;;;;;;;62.92;37.00;;;6.80;93.00;;;5.59;79.63;98513.00;5021209;28;20969;-78
2021/04/20 00:39:58;;;;;;;61.65;36.65;;;6.80;92.90;;;5.39;80.16;98505.00;5003925;28;20427;-78
2021/04/20 00:42:26;;;;;;;64.15;38.75;;;6.60;93.10;;;5.37;80.92;98507.00;5021605;28;20495;-79
2021/04/20 00:44:54;;;;;;;63.80;37.08;;;6.50;93.50;;;5.42;80.38;98497.53;5022545;28;20412;-79
2021/04/20 00:47:20;;;;;;;61.17;36.40;;;6.60;93.50;;;5.48;79.93;98506.47;5023022;28;20526;-78
2021/04/20 00:49:46;;;;;;;58.17;36.05;;;6.60;93.20;;;5.58;79.64;98503.50;5021770;28;20805;-78
2021/04/20 00:52:13;;;;;;;52.08;33.83;;;6.70;93.10;;;5.62;79.18;98500.31;5021760;28;20412;-78
2021/04/20 00:54:39;;;;;;;58.03;36.22;;;6.70;92.80;;;5.76;78.24;98495.94;5020662;28;20409;-78
2021/04/20 00:57:07;;;;;;;54.30;34.45;;;6.80;92.50;;;5.79;78.17;98495.53;5020895;28;20413;-78
2021/04/20 00:59:33;;;;;;;62.72;36.70;;;6.90;92.40;;;5.60;78.64;98502.31;5020456;28;20982;-78
2021/04/20 01:02:01;;;;;;;60.67;36.88;;;6.80;92.30;;;5.65;79.09;98496.47;5021261;28;20709;-78
2021/04/20 01:04:28;;;;;;;56.20;35.97;;;6.80;92.70;;;5.69;78.32;98488.03;5021041;28;20424;-79
2021/04/20 01:06:55;;;;;;;57.33;35.75;;;6.80;92.40;;;5.68;78.85;98494.28;5020691;28;20499;-78
2021/04/20 01:09:22;;;;;;;55.45;35.80;;;6.80;92.50;;;5.73;78.86;98491.88;5020844;28;20471;-78
2021/04/20 01:11:49;;;;;;;52.95;34.28;;;6.70;92.60;;;5.71;78.85;98490.47;5022796;28;20432;-78
2021/04/20 01:14:16;;;;;;;57.17;34.60;;;6.80;92.50;;;5.59;79.21;98486.75;5009707;28;20486;-78
2021/04/20 01:16:42;;;;;;;57.03;33.90;;;6.70;92.70;;;5.57;78.94;98481.69;5028652;28;20409;-78
2021/04/20 01:19:15;;;;;;;58.15;35.45;;;6.70;92.70;;;5.59;79.03;98484.13;5027719;28;20460;-79
2021/04/20 01:21:43;;;;;;;61.43;35.07;;;6.70;92.60;;;5.59;78.89;98487.56;5009809;28;20459;-79
2021/04/20 01:24:24;;;;;;;55.20;33.88;;;6.70;92.60;;;5.57;79.16;98491.38;5023624;28;20444;-79
2021/04/20 01:26:51;;;;;;;56.10;34.53;;;6.70;92.80;;;5.53;79.39;98482.25;5023205;28;20432;-79
2021/04/20 01:29:19;;;;;;;55.55;33.72;;;6.60;92.80;;;5.47;79.21;98475.16;5005442;28;20929;-78
2021/04/20 01:31:46;;;;;;;57.13;34.00;;;6.60;92.80;;;5.34;80.24;98484.53;5022186;28;20428;-78
2021/04/20 01:34:13;;;;;;;55.53;34.63;;;6.50;93.30;;;5.29;80.70;98484.31;5023105;28;20786;-79
2021/04/20 01:36:40;;;;;;;63.10;36.00;;;6.50;93.40;;;5.24;80.86;98483.25;5006134;28;20541;-78
2021/04/20 01:39:09;;;;;;;66.20;37.05;;;6.40;93.50;;;5.18;81.33;98487.47;5009004;28;20465;-78
2021/04/20 01:41:38;;;;;;;61.90;36.42;;;6.40;93.80;;;5.14;81.70;98494.09;5025927;28;20432;-78
2021/04/20 01:44:05;;;;;;;65.85;37.58;;;6.30;94.00;;;5.03;81.96;98491.97;5026762;28;20416;-78
2021/04/20 01:46:32;;;;;;;67.18;38.25;;;6.20;94.10;;;5.01;82.09;98497.41;5009576;28;20439;-78
2021/04/20 01:48:58;;;;;;;67.20;39.05;;;6.20;94.10;;;5.00;82.27;98497.59;5011717;28;20519;-78
2021/04/20 01:51:28;;;;;;;62.28;36.78;;;6.20;94.20;;;5.09;82.16;98500.91;5028085;28;20826;-79
2021/04/20 01:53:55;;;;;;;60.45;35.95;;;6.20;94.30;;;5.18;81.99;98505.84;5029320;28;20405;-78
2021/04/20 01:56:22;;;;;;;61.77;37.00;;;6.30;94.40;;;5.24;81.54;98504.25;5012416;28;20432;-78
2021/04/20 01:58:50;;;;;;;55.80;33.67;;;6.40;94.00;;;5.44;79.53;98500.78;5028649;28;20425;-79
2021/04/20 02:01:22;;;;;;;56.17;33.75;;;6.50;93.20;;;5.37;79.69;98494.69;5028786;28;20417;-78
2021/04/20 02:03:50;;;;;;;54.55;33.58;;;6.50;93.00;;;5.47;79.75;98499.59;5029789;28;20474;-79
2021/04/20 02:06:18;;;;;;;55.13;32.23;;;6.50;93.30;;;5.47;79.67;98504.84;5030404;28;20452;-78
2021/04/20 02:08:47;;;;;;;57.93;33.00;;;6.60;93.10;;;5.53;79.51;98504.09;5028922;28;20412;-78
2021/04/20 02:11:16;;;;;;;54.10;32.30;;;6.60;93.10;;;5.59;78.96;98498.06;5015031;28;20431;-77
2021/04/20 02:13:43;;;;;;;54.47;32.77;;;6.70;92.90;;;5.60;78.13;98497.06;5018036;28;20420;-77
2021/04/20 02:16:11;;;;;;;54.85;31.05;;;6.70;92.40;;;5.53;78.16;98495.41;5018377;28;20408;-77
2021/04/20 02:18:42;;;;;;;52.30;32.23;;;6.70;92.30;;;5.55;78.37;98491.59;5024903;28;20425;-77
2021/04/20 02:21:10;;;;;;;53.90;31.48;;;6.70;92.50;;;5.48;77.89;98495.97;5003244;28;20508;-78
2021/04/20 02:23:37;;;;;;;53.43;32.33;;;6.60;92.20;;;5.43;78.18;98488.66;5004053;28;20460;-79
2021/04/20 02:26:07;;;;;;;56.38;31.90;;;6.60;92.30;;;5.41;78.35;98495.91;5004553;28;20775;-78
2021/04/20 02:28:34;;;;;;;54.17;32.03;;;6.50;92.40;;;5.42;78.60;98491.47;5021551;28;20424;-78
2021/04/20 02:31:04;;;;;;;52.47;32.15;;;6.50;92.50;;;5.36;78.64;98487.78;5020392;28;20476;-78
2021/04/20 02:33:32;;;;;;;50.33;32.35;;;6.50;92.50;;;5.34;78.55;98487.16;5020858;28;20731;-78
2021/04/20 02:35:59;;;;;;;52.03;32.58;;;6.50;92.50;;;5.44;78.45;98492.91;5024256;28;20419;-78
2021/04/20 02:38:28;;;;;;;56.85;32.45;;;6.50;92.50;;;5.39;78.19;98492.69;5009709;28;20531;-78
2021/04/20 02:40:56;;;;;;;56.70;34.05;;;6.50;92.30;;;5.39;78.21;98491.88;5029053;28;20408;-78
2021/04/20 02:43:24;;;;;;;55.45;32.92;;;6.50;92.50;;;5.19;79.18;98496.16;5023646;28;20440;-78
2021/04/20 02:45:53;;;;;;;61.55;36.17;;;6.50;92.60;;;4.98;80.58;98494.34;5005132;28;20443;-79
2021/04/20 02:48:20;;;;;;;60.22;35.92;;;6.20;93.20;;;5.03;80.44;98497.22;5003249;28;20942;-78
2021/04/20 02:50:50;;;;;;;58.95;36.30;;;6.20;93.50;;;4.99;80.98;98482.84;5020136;28;20412;-78
2021/04/20 02:53:18;;;;;;;61.10;37.03;;;6.20;93.70;;;4.91;81.82;98488.22;5021093;28;20420;-79
2021/04/20 02:55:46;;;;;;;66.03;38.33;;;6.10;94.00;;;4.75;82.53;98493.72;5022256;28;20408;-78
2021/04/20 02:58:16;;;;;;;70.10;40.65;;;6.00;94.20;;;4.73;82.79;98486.03;5025159;28;20447;-78
2021/04/20 03:00:45;;;;;;;65.18;38.50;;;5.90;94.60;;;4.82;82.38;98486.72;5028017;28;20405;-78
2021/04/20 03:03:15;;;;;;;60.08;36.45;;;5.90;94.50;;;4.94;81.82;98490.47;5008238;28;20706;-79
2021/04/20 03:05:42;;;;;;;58.05;36.60;;;6.00;94.30;;;4.95;81.54;98485.06;5024003;28;20415;-78
2021/04/20 03:08:10;;;;;;;54.47;34.10;;;6.00;94.00;;;4.87;80.83;98482.56;5020199;28;20456;-79
2021/04/20 03:10:38;;;;;;;56.38;34.30;;;6.10;93.60;;;4.59;81.67;98468.53;5005239;28;20441;-77
2021/04/20 03:13:06;;;;;;;55.30;35.05;;;5.90;93.90;;;4.56;82.17;98477.59;5026866;28;20484;-78
2021/04/20 03:15:33;;;;;;;59.00;36.20;;;5.80;94.20;;;4.60;81.76;98475.41;5025648;28;20427;-78
2021/04/20 03:18:00;;;;;;;52.63;34.27;;;5.80;94.30;;;4.70;81.57;98469.84;5023709;28;20423;-78
2021/04/20 03:20:26;;;;;;;53.13;33.40;;;5.90;94.10;;;4.57;81.93;98481.03;5022426;28;20405;-78
2021/04/20 03:22:55;;;;;;;57.33;34.83;;;5.80;94.10;;;4.68;81.96;98480.53;5021456;28;20409;-78
2021/04/20 03:25:25;;;;;;;54.53;34.13;;;5.80;94.30;;;4.79;81.73;98481.84;5021499;28;20478;-78
2021/04/20 03:27:53;;;;;;;47.95;32.42;;;5.90;94.30;;;4.82;81.52;98481.47;5020075;28;20424;-78
2021/04/20 03:30:25;;;;;;;47.80;31.80;;;6.00;94.10;;;4.96;80.18;98473.53;5020148;28;20420;-78
2021/04/20 03:33:00;;;;;;;46.10;31.05;;;6.10;93.60;;;5.04;80.28;98472.59;5018624;28;20456;-78
2021/04/20 03:35:33;;;;;;;49.97;32.47;;;6.20;93.90;;;5.13;79.51;98468.84;5022781;28;20414;-78
2021/04/20 03:38:08;;;;;;;53.17;31.50;;;6.20;93.40;;;5.27;79.14;98469.75;5025620;28;20417;-78
2021/04/20 03:40:36;;;;;;;50.30;32.22;;;6.30;93.10;;;5.05;79.48;98453.22;5025668;28;20432;-77
2021/04/20 03:43:13;;;;;;;53.15;32.50;;;6.30;93.00;;;5.12;79.47;98458.53;5022650;28;20405;-79
2021/04/20 03:45:48;;;;;;;48.08;30.80;;;6.20;93.10;;;5.19;78.87;98465.44;5021534;28;20401;-79
2021/04/20 03:48:20;;;;;;;50.57;31.57;;;6.30;92.90;;;5.25;78.83;98466.53;5004395;28;20428;-78
2021/04/20 03:50:57;;;;;;;52.63;32.15;;;6.40;92.80;;;5.17;79.16;98459.59;5004882;28;20845;-79
2021/04/20 03:53:26;;;;;;;51.72;32.08;;;6.30;92.90;;;4.87;80.13;98455.50;5021616;28;20473;-78
2021/04/20 03:55:54;;;;;;;52.72;32.05;;;6.20;93.00;;;4.86;80.53;98467.00;5004552;28;20505;-77
2021/04/20 03:58:23;;;;;;;54.10;32.47;;;6.00;93.40;;;4.92;80.66;98464.44;5022365;28;20501;-79
2021/04/20 04:00:55;;;;;;;50.37;32.07;;;6.10;93.60;;;4.94;80.63;98472.94;5021994;28;20400;-78
2021/04/20 04:03:25;;;;;;;53.70;32.90;;;6.10;93.50;;;5.09;80.42;98464.97;5024544;28;20413;-78
2021/04/20 04:05:53;;;;;;;53.50;32.27;;;6.10;93.70;;;5.07;79.94;98464.34;5028119;28;20401;-76
2021/04/20 04:08:21;;;;;;;55.73;32.77;;;6.20;93.30;;;4.85;80.87;98463.56;5028902;28;20428;-78
2021/04/20 04:10:54;;;;;;;54.65;33.13;;;6.10;93.40;;;4.76;81.20;98458.63;5023299;28;20405;-77
2021/04/20 04:13:26;;;;;;;57.80;33.45;;;6.00;93.80;;;4.59;81.80;98458.84;5024057;28;20520;-77
2021/04/20 04:15:59;;;;;;;62.17;35.67;;;5.90;94.10;;;4.54;82.41;98463.03;5025578;28;20419;-78
2021/04/20 04:18:29;;;;;;;63.80;35.50;;;5.80;94.30;;;4.50;82.57;98457.38;5024983;28;20416;-78
2021/04/20 04:20:59;;;;;;;64.90;37.38;;;5.70;94.60;;;4.54;83.00;98465.66;5022745;28;20952;-76
2021/04/20 04:23:30;;;;;;;59.35;35.78;;;5.70;94.80;;;4.51;82.63;98451.09;5024033;28;20431;-78
2021/04/20 04:26:04;;;;;;;57.15;35.45;;;5.70;94.60;;;4.50;82.80;98456.56;5023510;28;20424;-76
2021/04/20 04:28:34;;;;;;;60.78;35.45;;;5.70;94.50;;;4.51;82.68;98455.56;5002823;28;20424;-78
2021/04/20 04:31:04;;;;;;;63.42;36.65;;;5.70;94.70;;;4.48;82.72;98456.75;5002625;28;20413;-77
2021/04/20 04:33:34;;;;;;;59.97;35.75;;;5.70;94.60;;;4.42;82.81;98464.53;5018348;28;20542;-79
2021/04/20 04:36:02;;;;;;;67.28;38.13;;;5.60;94.70;;;4.46;83.04;98463.97;5019462;28;20417;-78
2021/04/20 04:38:30;;;;;;;64.10;36.65;;;5.60;94.90;;;4.56;82.70;98468.91;5021699;28;20437;-77
2021/04/20 04:40:58;;;;;;;66.35;37.17;;;5.70;94.80;;;4.64;82.59;98474.03;5020929;28;20404;-77
2021/04/20 04:43:25;;;;;;;64.18;35.35;;;5.80;94.70;;;4.63;82.46;98473.22;5023422;28;20441;-80
2021/04/20 04:45:55;;;;;;;63.25;36.75;;;5.80;94.50;;;4.61;82.38;98467.34;5025309;28;20400;-77
2021/04/20 04:48:22;;;;;;;62.60;36.05;;;5.80;94.50;;;4.62;82.54;98481.28;5028986;28;20440;-79
2021/04/20 04:50:50;;;;;;;61.20;35.42;;;5.80;94.50;;;4.69;82.35;98471.66;5032948;28;20409;-77
2021/04/20 04:53:17;;;;;;;55.88;34.58;;;5.80;94.50;;;4.81;82.25;98474.63;5030071;28;20408;-77
2021/04/20 04:55:44;;;;;;;52.00;33.75;;;5.90;94.50;;;4.86;81.69;98472.25;5009032;28;20884;-76
2021/04/20 04:58:11;;;;;;;54.80;32.83;;;6.00;94.20;;;4.72;82.06;98468.69;5010499;28;20428;-77
2021/04/20 05:00:38;;;;;;;58.95;35.17;;;6.00;94.20;;;4.50;82.77;98467.03;5029159;28;20413;-77
2021/04/20 05:03:06;;;;;;;61.03;35.13;;;5.80;94.50;;;4.43;83.13;98464.34;5026335;28;20424;-78
2021/04/20 05:05:36;;;;;;;60.23;35.47;;;5.60;94.80;;;4.55;83.19;98473.34;5022663;28;20440;-76
2021/04/20 05:08:03;;;;;;;58.20;35.47;;;5.70;95.00;;;4.64;82.52;98472.25;5007418;28;20494;-77
2021/04/20 05:10:29;;;;;;;58.13;35.67;;;5.80;94.80;;;4.76;81.77;98476.97;5006405;28;20475;-77
2021/04/20 05:12:57;;;;;;;58.50;35.35;;;5.80;94.50;;;4.72;81.99;98473.13;5022483;28;20806;-78
2021/04/20 05:15:23;;;;;;;57.35;36.20;;;5.90;94.30;;;4.73;82.02;98475.56;5021910;28;20432;-78
2021/04/20 05:17:50;;;;;;;64.30;35.95;;;5.90;94.40;;;4.80;81.94;98479.06;5005489;28;20424;-79
2021/04/20 05:20:20;;;;;;;53.63;33.25;;;5.90;94.40;;;4.79;81.52;98466.13;5022797;28;20410;-78
2021/04/20 05:22:49;;;;;;;54.03;33.35;;;6.00;94.20;;;4.83;81.29;98475.22;5005204;28;20520;-78
2021/04/20 05:25:19;;;;;;;58.58;34.78;;;6.00;94.10;;;4.87;81.65;98474.69;5006542;28;20487;-79
2021/04/20 05:27:48;;;;;;;45.80;28.63;;;6.00;94.20;;;4.86;81.22;98478.28;5025159;28;20436;-78
2021/04/20 05:30:15;;;;;;;42.28;27.95;;;6.00;93.90;;;4.85;80.65;98476.66;5007697;28;20485;-77
2021/04/20 05:32:49;;;;;;;41.45;28.15;;;6.10;93.60;;;4.94;80.26;98479.97;5011743;28;20471;-77
2021/04/20 05:35:17;;;;;;;38.90;27.48;;;6.10;93.50;;;5.00;80.23;98485.28;5030862;28;20436;-77
2021/04/20 05:37:46;;;;;;;37.80;26.05;;;6.10;93.40;;;5.03;79.75;98484.09;5010142;28;20432;-76
2021/04/20 05:40:15;;;;;;;38.67;25.90;;;6.20;93.20;;;5.06;79.63;98479.28;5023869;28;20416;-76
2021/04/20 05:42:42;;;;;;;38.20;25.47;;;6.20;93.00;;;5.19;79.07;98478.56;5026528;28;20440;-79
2021/04/20 05:45:12;;;;;;;34.92;24.83;;;6.40;92.90;;;5.22;78.57;98487.88;5030162;28;20432;-78
2021/04/20 05:47:39;;;;;;;42.88;26.58;;;6.30;92.60;;;5.26;78.22;98486.53;5021869;28;20433;-80
2021/04/20 05:50:09;;;;;;;41.50;25.60;;;6.40;92.40;;;5.35;78.17;98485.34;5023597;28;20401;-80
2021/04/20 05:52:37;;;;;;;40.60;24.13;;;6.40;92.50;;;5.57;77.67;98481.69;5022154;28;20528;-77
2021/04/20 05:55:07;;;;;;;36.60;24.90;;;6.60;92.40;;;5.63;76.80;98475.69;5021312;28;20417;-77
2021/04/20 05:57:33;;;;;;;37.10;24.77;;;6.70;91.80;;;5.61;76.86;98471.63;5019667;28;20416;-76
2021/04/20 06:00:01;;;;;;;39.08;24.27;;;6.70;91.70;;;6.06;75.71;98481.59;5021051;28;20444;-77
2021/04/20 06:02:33;;;;;;;44.08;23.92;;;6.90;91.70;;;6.16;74.97;98489.13;5004768;28;20455;-75
2021/04/20 06:05:08;;;;;;;39.42;25.90;;;7.20;91.10;;;6.09;75.26;98483.03;5020923;28;20420;-75
2021/04/20 06:07:39;;;;;;;45.83;24.45;;;7.20;90.90;;;6.43;73.97;98484.78;5020617;28;20528;-76
2021/04/20 06:10:09;;;;;;;37.67;24.27;;;7.30;90.70;;;6.52;73.45;98492.28;5003186;28;20416;-76
2021/04/20 06:12:37;;;;;;;39.15;23.67;;;7.50;90.30;;;6.42;73.70;98489.22;5020591;28;20486;-76
2021/04/20 06:15:06;;;;;;;38.10;24.35;;;7.50;90.20;;;6.11;74.53;98494.13;5020788;28;20409;-75
2021/04/20 06:17:36;;;;;;;37.08;25.55;;;7.30;90.30;;;5.93;75.38;98488.59;5020999;28;20535;-76
2021/04/20 06:20:07;;;;;;;46.45;26.63;;;7.10;90.80;;;5.91;75.92;98495.88;5007988;28;20486;-75
2021/04/20 06:22:35;;;;;;;49.47;30.52;;;7.00;91.20;;;5.91;76.20;98503.75;5025650;28;20415;-76
2021/04/20 06:25:08;;;;;;;45.80;28.48;;;7.00;91.40;;;5.95;76.40;98487.38;5006001;28;20431;-75
2021/04/20 06:27:34;;;;;;;47.30;28.67;;;7.10;91.50;;;5.99;76.32;98490.47;5027591;28;20428;-74
2021/04/20 06:30:00;;;;;;;44.03;29.05;;;7.10;91.40;;;6.25;75.43;98502.91;5027459;28;20408;-75
2021/04/20 06:32:30;;;;;;;41.78;26.83;;;7.20;91.20;;;6.48;74.73;98492.88;5025916;28;20416;-75
2021/04/20 06:34:56;;;;;;;48.77;27.27;;;7.50;90.90;;;6.64;74.50;98491.72;5011329;28;20428;-74
2021/04/20 06:37:23;;;;;;;54.77;27.47;;;7.60;90.70;;;6.70;73.64;98496.16;5007770;28;20436;-76
2021/04/20 06:39:49;;;;;;;47.53;30.17;;;7.80;90.10;;;6.61;73.94;98496.34;5025626;28;20451;-76
2021/04/20 06:42:23;;;;;;;40.92;26.90;;;7.70;90.20;;;6.61;74.19;98501.59;5026317;28;20523;-76
2021/04/20 06:44:58;;;;;;;46.70;28.20;;;7.70;90.20;;;6.72;74.03;98502.06;5003015;28;20412;-76
2021/04/20 06:47:30;;;;;;;49.65;28.45;;;7.80;90.30;;;6.73;74.00;98496.59;5002353;28;20516;-77
2021/04/20 06:50:04;;;;;;;48.28;28.92;;;7.80;90.30;;;6.82;74.24;98495.41;5021459;28;20423;-76
2021/04/20 06:52:37;;;;;;;46.65;28.23;;;7.90;90.30;;;6.81;73.71;98500.88;5021310;28;20428;-77
2021/04/20 06:55:10;;;;;;;44.88;27.58;;;7.90;90.00;;;6.80;73.77;98504.50;5020450;28;20423;-76
2021/04/20 06:57:49;;;;;;;45.65;29.05;;;7.90;90.10;;;6.77;73.91;98502.25;5019908;28;20423;-76
2021/04/20 07:00:19;;;;;;;46.70;28.88;;;7.90;90.20;;;6.73;74.15;98501.03;5022324;28;20408;-76
2021/04/20 07:02:57;;;;;;;48.30;29.85;;;7.80;90.20;;;6.63;74.45;98504.03;5004117;28;20849;-76
2021/04/20 07:05:34;;;;;;;50.30;32.22;;;7.80;90.40;;;6.63;74.89;98508.50;5018953;28;20421;-76
2021/04/20 07:08:16;;;;;;;54.72;31.02;;;7.70;90.70;;;6.63;74.90;98497.97;5000669;28;20429;-77
2021/04/20 07:10:44;;;;;;;51.63;31.77;;;7.70;90.60;;;6.68;74.96;98496.38;5003066;28;20405;-76
2021/04/20 07:13:16;;;;;;;47.55;31.00;;;7.70;90.70;;;6.75;74.75;98499.84;5000909;28;20507;-77
2021/04/20 07:15:55;;;;;;;46.80;30.52;;;7.80;90.70;;;6.77;74.86;98495.16;5019632;28;20712;-78
2021/04/20 07:19:09;;;;;;;47.47;30.77;;;7.90;90.70;;;6.92;74.45;98495.81;5019433;28;20679;-77
2021/04/20 07:22:07;;;;;;;49.97;30.48;;;7.90;90.60;;;7.13;73.51;98484.31;5001793;28;20424;-77
2021/04/20 07:24:48;;;;;;;45.92;29.50;;;8.20;90.40;;;7.32;73.34;98493.22;5018804;28;20726;-76
2021/04/20 07:27:28;;;;;;;48.83;30.48;;;8.30;90.10;;;7.37;73.11;98481.03;5019139;28;20425;-77
2021/04/20 07:30:12;;;;;;;47.43;30.30;;;8.40;89.70;;;7.52;73.19;98495.84;5020194;28;20519;-76
2021/04/20 07:33:06;;;;;;;48.13;30.35;;;8.50;89.80;;;7.81;72.44;98486.69;5002564;28;20425;-77
2021/04/20 07:35:36;;;;;;;49.23;30.30;;;8.70;89.50;;;7.84;72.13;98488.91;5004314;28;20421;-77
2021/04/20 07:38:15;;;;;;;52.20;31.05;;;8.90;88.70;;;7.84;72.03;98489.72;5021337;28;20417;-77
2021/04/20 07:40:52;;;;;;;48.42;31.20;;;8.90;88.50;;;7.91;72.19;98494.97;5020329;28;20447;-77
2021/04/20 07:43:32;;;;;;;48.67;31.15;;;8.90;88.70;;;8.05;72.20;98502.63;5003805;28;20451;-77
2021/04/20 07:46:11;;;;;;;56.95;32.88;;;9.00;88.90;;;8.09;72.21;98498.56;5021146;28;20421;-78
2021/04/20 07:48:54;;;;;;;52.70;34.38;;;9.10;88.70;;;8.18;72.15;98503.63;5024614;28;20409;-77
2021/04/20 07:51:29;;;;;;;50.92;32.83;;;9.10;88.70;;;8.18;71.82;98493.88;5028279;28;20440;-77
2021/04/20 07:54:12;;;;;;;65.63;34.92;;;9.20;88.20;;;8.31;71.68;98499.13;5009435;28;20463;-77
2021/04/20 07:56:45;;;;;;;50.15;31.65;;;9.30;88.40;;;8.43;71.68;98494.81;5010666;28;20527;-77
2021/04/20 07:59:18;;;;;;;49.45;31.02;;;9.40;88.30;;;8.54;71.01;98488.06;5025431;28;20428;-78
2021/04/20 08:01:53;;;;;;;49.65;30.95;;;9.60;87.30;;;8.57;71.09;98489.50;5022099;28;20431;-77
2021/04/20 08:04:39;;;;;;;45.17;30.30;;;9.60;87.60;;;8.71;70.79;98489.22;5024431;28;20405;-77
2021/04/20 08:07:13;;;;;;;49.40;31.50;;;9.70;87.30;;;8.77;70.68;98483.06;5025252;28;20428;-77
2021/04/20 08:09:43;;;;;;;42.08;28.05;;;9.80;87.20;;;8.78;69.90;98475.97;5019151;28;20738;-76
2021/04/20 08:12:18;;;;;;;48.88;28.13;;;9.80;85.90;;;8.96;69.92;98491.88;5024238;28;20508;-77
2021/04/20 08:14:50;;;;;;;44.97;28.67;;;9.90;86.10;;;8.95;69.79;98481.56;5032277;28;20385;-77
2021/04/20 08:17:26;;;;;;;43.13;27.98;;;10.00;85.90;;;9.07;69.28;98483.28;5028111;28;20514;-77
2021/04/20 08:19:57;;;;;;;45.92;28.70;;;10.00;85.80;;;9.11;68.65;98473.09;5020889;28;20482;-77
2021/04/20 08:22:25;;;;;;;44.60;26.33;;;10.10;84.80;;;9.20;68.19;98474.44;5005258;28;20437;-77
2021/04/20 08:25:00;;;;;;;42.22;26.27;;;10.20;84.30;;;9.36;67.70;98471.25;5024602;28;20502;-77
2021/04/20 08:27:53;;;;;;;78.05;28.95;;;10.30;84.00;;;9.38;68.46;98473.69;5007833;28;25164;-77
2021/04/20 08:30:31;;;;;;;126.63;33.35;;;10.40;84.10;;;9.56;68.38;98468.44;5006032;28;20711;-77
2021/04/20 08:33:07;;;;;;;50.33;28.63;;;10.50;84.60;;;9.68;66.65;98472.81;5020438;28;25110;-76
2021/04/20 08:35:34;;;;;;;38.50;25.88;;;10.70;82.50;;;9.91;64.77;98466.88;5019313;28;20820;-77
2021/04/20 08:38:13;;;;;;;43.17;26.42;;;10.80;81.10;;;10.07;64.97;98460.97;5019234;28;20411;-76
2021/04/20 08:40:49;;;;;;;42.17;26.38;;;11.00;80.70;;;10.19;64.83;98462.94;5003462;28;20440;-76
2021/04/20 08:43:30;;;;;;;34.58;21.95;;;11.10;80.70;;;10.18;62.46;98458.66;5021673;28;20429;-77
2021/04/20 08:46:06;;;;;;;34.73;23.93;;;11.20;77.80;;;10.49;62.10;98463.75;5004126;28;20778;-77
2021/04/20 08:48:50;;;;;;;38.97;25.25;;;11.30;77.80;;;10.16;63.50;98463.31;5022126;28;20872;-77
2021/04/20 08:51:29;;;;;;;41.70;24.97;;;11.20;78.20;;;10.22;63.68;98462.50;5022572;28;20447;-75
2021/04/20 08:54:18;;;;;;;35.17;23.63;;;11.20;78.90;;;10.24;62.70;98463.06;5022045;28;20556;-76
2021/04/20 08:56:55;;;;;;;34.72;20.33;;;11.20;78.00;;;10.14;62.31;98457.47;5005431;28;20414;-76
2021/04/20 08:59:52;;;;;;;37.83;21.88;;;11.10;77.10;;;10.43;62.26;98459.38;5022130;28;20469;-77
2021/04/20 09:02:32;;;;;;;36.97;23.10;;;11.30;77.50;;;10.59;61.72;98463.25;5020837;28;20496;-77
2021/04/20 09:05:16;;;;;;;35.30;23.63;;;11.50;76.80;;;10.78;61.75;98467.44;5003266;28;20749;-77
2021/04/20 09:07:55;;;;;;;37.65;23.55;;;11.60;76.90;;;10.70;61.61;98457.97;5018169;28;20850;-77
2021/04/20 09:10:30;;;;;;;36.10;24.67;;;11.70;76.30;;;10.72;61.51;98461.22;5020000;28;20822;-77
2021/04/20 09:13:08;;;;;;;41.67;24.37;;;11.70;76.30;;;10.81;61.59;98465.16;5019399;28;20420;-77
2021/04/20 09:15:41;;;;;;;36.40;23.77;;;11.70;76.80;;;10.78;60.79;98459.50;5021878;28;20419;-77
2021/04/20 09:18:12;;;;;;;37.05;23.70;;;11.70;75.60;;;11.02;59.82;98463.81;5005352;28;20451;-76
2021/04/20 09:20:53;;;;;;;38.67;23.77;;;11.90;74.80;;;11.08;60.51;98454.16;5021387;28;20429;-76
2021/04/20 09:23:38;;;;;;;41.80;25.13;;;12.00;75.40;;;11.02;60.76;98455.06;5005028;28;20443;-76
2021/04/20 09:26:19;;;;;;;39.30;24.67;;;12.00;75.40;;;11.06;60.13;98451.72;5005365;28;20876;-76
2021/04/20 09:29:03;;;;;;;42.95;25.25;;;12.00;74.90;;;11.09;59.99;98448.63;5022560;28;20416;-77
2021/04/20 09:31:36;;;;;;;36.13;23.38;;;12.10;74.70;;;11.14;60.23;98445.28;5021397;28;20408;-76
2021/04/20 09:34:05;;;;;;;37.70;23.90;;;12.10;74.80;;;11.27;59.79;98439.78;5023781;28;20427;-76
2021/04/20 09:36:34;;;;;;;34.15;22.23;;;12.20;74.60;;;11.20;58.95;98442.53;5021421;28;20489;-75
2021/04/20 09:39:05;;;;;;;38.70;23.15;;;12.20;72.90;;;11.32;58.82;98439.91;5023388;28;20812;-76
2021/04/20 09:41:37;;;;;;;35.55;22.40;;;12.30;73.10;;;11.27;58.63;98442.44;5020167;28;20416;-75
2021/04/20 09:44:34;;;;;;;38.75;22.95;;;12.30;72.40;;;11.52;57.95;98436.91;5021162;28;20435;-75
2021/04/20 09:47:29;;;;;;;32.25;21.83;;;12.40;72.50;;;11.71;57.51;98440.25;4998838;28;21032;-77
2021/04/20 09:50:15;;;;;;;35.00;21.88;;;12.50;71.90;;;11.88;56.25;98438.50;5022866;28;20809;-77
2021/04/20 09:53:30;;;;;;;35.38;21.35;;;12.70;71.60;;;11.92;56.31;98432.53;5022819;28;20417;-76
2021/04/20 09:56:11;;;;;;;32.30;20.85;;;12.80;70.30;;;12.12;55.43;98426.81;4967360;28;20481;-77
2021/04/20 09:58:43;;;;;;;34.17;20.33;;;13.10;69.10;;;12.11;54.72;98430.50;5006403;28;20412;-77
2021/04/20 10:01:41;;;;;;;34.85;20.00;;;13.10;68.30;;;12.12;55.20;98437.44;5006619;28;20444;-77
2021/04/20 10:04:10;;;;;;;32.53;20.20;;;13.10;68.80;;;11.85;55.10;98441.63;5005613;28;20423;-77
2021/04/20 10:07:11;;;;;;;33.20;22.10;;;12.80;68.30;;;11.71;55.62;98441.06;5004341;28;20440;-77
2021/04/20 10:09:49;;;;;;;31.13;19.88;;;12.70;68.90;;;11.66;55.49;98438.28;5022978;28;20424;-76
2021/04/20 10:12:30;;;;;;;28.85;19.13;;;12.60;68.90;;;11.76;55.21;98430.56;5024992;28;20417;-76
2021/04/20 10:15:16;;;;;;;35.85;20.60;;;12.70;68.60;;;11.75;55.17;98434.25;5023266;28;20446;-76
2021/04/20 10:17:58;;;;;;;28.00;19.27;;;12.70;68.20;;;11.73;55.21;98436.31;5024179;28;20492;-75
2021/04/20 10:20:37;;;;;;;26.55;18.90;;;12.70;68.70;;;11.69;54.95;98429.06;5023568;28;20443;-76
2021/04/20 10:23:20;;;;;;;34.65;22.35;;;12.70;68.20;;;11.74;55.24;98424.69;5004427;28;20783;-76
2021/04/20 10:25:53;;;;;;;30.02;20.23;;;12.70;68.70;;;11.80;54.97;98426.41;5005019;28;20547;-76
2021/04/20 10:28:31;;;;;;;26.13;18.85;;;12.70;68.30;;;11.98;54.52;98426.28;5020066;28;20547;-76
2021/04/20 10:31:07;;;;;;;28.75;18.13;;;12.90;68.00;;;12.25;52.79;98415.94;5021173;28;20415;-77
2021/04/20 10:33:36;;;;;;;27.95;18.75;;;13.10;66.10;;;12.12;53.10;98424.16;5020358;28;20416;-77
2021/04/20 10:36:03;;;;;;;29.55;18.90;;;13.10;65.60;;;12.07;53.34;98424.06;5002832;28;20503;-77
2021/04/20 10:38:34;;;;;;;28.30;18.60;;;13.00;66.10;;;12.29;53.58;98424.22;5003276;28;20450;-77